createdAt,value
2022-11-06T00:01:46.001Z,90.49
2022-11-06T00:04:12.630Z,90.47
2022-11-06T00:06:48.364Z,90.52
2022-11-06T00:09:20.461Z,90.30
2022-11-06T00:11:49.161Z,90.20
2022-11-06T00:14:16.745Z,90.02
2022-11-06T00:16:44.400Z,90.00
2022-11-06T00:19:11.311Z,90.18
2022-11-06T00:21:38.799Z,90.26
2022-11-06T00:24:07.268Z,90.23
2022-11-06T00:26:34.675Z,90.24
2022-11-06T00:29:02.446Z,90.15
2022-11-06T00:31:31.788Z,89.99
2022-11-06T00:34:00.857Z,90.28
2022-11-06T00:36:30.553Z,90.35
2022-11-06T00:38:58.936Z,90.39
2022-11-06T00:41:25.952Z,90.16
2022-11-06T00:43:58.499Z,90.31
2022-11-06T00:46:25.856Z,90.19
2022-11-06T00:48:53.678Z,90.25
2022-11-06T00:51:31.115Z,90.25
2022-11-06T00:54:04.051Z,90.12
2022-11-06T00:56:31.859Z,90.24
2022-11-06T01:01:43.297Z,90.27
2022-11-06T01:04:13.014Z,90.48
2022-11-06T01:06:42.235Z,90.42
2022-11-06T01:09:11.317Z,90.57
2022-11-06T01:12:11.574Z,90.57
2022-11-06T01:14:33.533Z,90.39
2022-11-06T01:17:00.213Z,90.51
2022-11-06T01:19:26.826Z,90.58
2022-11-06T01:21:54.375Z,90.50
2022-11-06T01:24:26.843Z,90.57
2022-11-06T01:27:20.405Z,90.49
2022-11-06T01:29:40.776Z,90.65
2022-11-06T01:32:07.729Z,90.59
2022-11-06T01:34:34.392Z,90.41
2022-11-06T01:37:01.584Z,90.14
2022-11-06T01:39:28.136Z,90.25
2022-11-06T01:41:55.324Z,90.31
2022-11-06T01:44:33.827Z,90.01
2022-11-06T01:47:02.253Z,90.07
2022-11-06T01:49:37.317Z,89.96
2022-11-06T01:52:09.215Z,89.72
2022-11-06T01:54:38.844Z,90.05
2022-11-06T01:57:05.810Z,90.04
2022-11-06T01:59:37.294Z,90.05
2022-11-06T02:02:04.465Z,90.17
2022-11-06T02:04:40.721Z,89.97
2022-11-06T02:07:07.917Z,90.14
2022-11-06T02:09:35.691Z,90.22
2022-11-06T02:12:06.255Z,90.12
2022-11-06T02:14:51.401Z,90.32
2022-11-06T02:18:02.133Z,90.24
2022-11-06T02:20:37.209Z,90.43
2022-11-06T02:23:39.326Z,90.55
2022-11-06T02:26:53.865Z,90.58
2022-11-06T02:29:24.696Z,90.69
2022-11-06T02:31:54.479Z,90.55
2022-11-06T02:34:24.790Z,90.53
2022-11-06T02:36:59.587Z,90.50
2022-11-06T02:39:29.368Z,90.61
2022-11-06T02:41:59.528Z,90.61
2022-11-06T02:44:28.852Z,90.53
2022-11-06T02:47:05.959Z,90.51
2022-11-06T02:49:50.350Z,90.59
2022-11-06T02:52:29.456Z,90.56
2022-11-06T02:55:11.384Z,90.64
2022-11-06T02:57:40.136Z,90.74
2022-11-06T03:00:11.853Z,90.63
2022-11-06T03:02:56.209Z,90.43
2022-11-06T03:05:36.433Z,90.63
2022-11-06T03:08:08.048Z,90.66
2022-11-06T03:10:43.800Z,90.58
2022-11-06T03:13:24.959Z,90.42
2022-11-06T03:16:08.717Z,90.17
2022-11-06T03:18:43.990Z,90.49
2022-11-06T03:21:24.822Z,90.49
2022-11-06T03:23:56.224Z,90.39
2022-11-06T03:26:30.833Z,90.30
2022-11-06T03:29:07.022Z,90.52
2022-11-06T03:31:37.858Z,90.58
2022-11-06T03:34:11.131Z,90.60
2022-11-06T03:36:44.137Z,90.48
2022-11-06T03:39:34.822Z,90.39
2022-11-06T03:42:06.464Z,90.33
2022-11-06T03:44:36.132Z,90.14
2022-11-06T03:47:29.054Z,90.11
2022-11-06T03:50:10.214Z,90.22
2022-11-06T03:52:43.296Z,90.19
2022-11-06T03:55:24.619Z,90.22
2022-11-06T03:57:56.853Z,90.37
2022-11-06T04:00:23.531Z,90.47
2022-11-06T04:03:05.878Z,90.36
2022-11-06T04:05:51.998Z,90.27
2022-11-06T04:08:40.853Z,90.36
2022-11-06T04:11:29.302Z,90.18
2022-11-06T04:13:57.947Z,90.17
2022-11-06T04:16:26.737Z,90.01
2022-11-06T04:18:53.312Z,90.08
2022-11-06T04:21:22.442Z,90.16
2022-11-06T04:24:26.140Z,89.54
2022-11-06T04:27:17.170Z,89.37
2022-11-06T04:30:06.069Z,89.51
2022-11-06T04:33:00.114Z,89.59
2022-11-06T04:35:52.007Z,89.59
2022-11-06T04:38:18.569Z,89.27
2022-11-06T04:41:02.762Z,89.25
2022-11-06T04:43:50.255Z,89.36
2022-11-06T04:46:23.555Z,89.46
2022-11-06T04:48:50.499Z,89.66
2022-11-06T04:51:21.466Z,89.63
2022-11-06T04:53:50.201Z,89.46
2022-11-06T04:56:28.249Z,89.44
2022-11-06T04:58:55.977Z,89.48
2022-11-06T05:01:22.746Z,89.50
2022-11-06T05:03:49.647Z,89.00
2022-11-06T05:06:16.639Z,88.97
2022-11-06T05:08:43.622Z,89.17
2022-11-06T05:11:10.253Z,89.17
2022-11-06T05:13:38.371Z,89.10
2022-11-06T05:16:05.800Z,89.00
2022-11-06T05:18:32.739Z,89.13
2022-11-06T05:21:19.625Z,89.12
2022-11-06T05:23:46.295Z,88.75
2022-11-06T05:26:13.286Z,88.94
2022-11-06T05:28:40.032Z,88.84
2022-11-06T05:31:06.703Z,88.81
2022-11-06T05:33:33.313Z,88.62
2022-11-06T05:36:04.771Z,88.61
2022-11-06T05:38:32.020Z,88.81
2022-11-06T05:40:58.912Z,88.54
2022-11-06T05:43:25.695Z,88.54
2022-11-06T05:45:53.264Z,88.26
2022-11-06T05:48:19.903Z,88.33
2022-11-06T05:50:46.721Z,88.38
2022-11-06T05:53:14.301Z,88.58
2022-11-06T05:55:41.160Z,88.39
2022-11-06T05:58:07.740Z,88.48
2022-11-06T06:00:34.334Z,88.22
2022-11-06T06:03:02.175Z,88.09
2022-11-06T06:05:28.905Z,88.02
2022-11-06T06:07:55.647Z,88.06
2022-11-06T06:10:22.499Z,87.94
2022-11-06T06:12:52.246Z,87.92
2022-11-06T06:15:19.066Z,88.08
2022-11-06T06:17:46.549Z,88.02
2022-11-06T06:20:13.385Z,87.93
2022-11-06T06:22:40.073Z,88.13
2022-11-06T06:25:14.621Z,88.09
2022-11-06T06:27:47.857Z,88.18
2022-11-06T06:30:14.539Z,88.18
2022-11-06T06:32:41.303Z,88.39
2022-11-06T06:35:08.068Z,88.40
2022-11-06T06:37:35.148Z,88.38
2022-11-06T06:40:01.728Z,88.41
2022-11-06T06:42:31.367Z,88.52
2022-11-06T06:44:58.489Z,88.42
2022-11-06T06:47:25.107Z,88.23
2022-11-06T06:49:51.706Z,88.22
2022-11-06T06:52:18.296Z,88.42
2022-11-06T06:54:45.392Z,88.48
2022-11-06T06:57:11.916Z,88.30
2022-11-06T06:59:38.485Z,88.16
2022-11-06T07:02:05.182Z,87.58
2022-11-06T07:04:31.795Z,87.00
2022-11-06T07:06:58.358Z,86.46
2022-11-06T07:09:25.014Z,85.99
2022-11-06T07:11:51.632Z,85.77
2022-11-06T07:14:18.338Z,85.33
2022-11-06T07:16:47.375Z,84.94
2022-11-06T07:19:17.845Z,84.95
2022-11-06T07:21:44.432Z,84.91
2022-11-06T07:24:11.066Z,84.54
2022-11-06T07:26:37.655Z,84.01
2022-11-06T07:33:39.734Z,83.19
2022-11-06T07:36:10.164Z,83.13
2022-11-06T07:38:38.247Z,82.54
2022-11-06T07:41:06.835Z,82.41
2022-11-06T07:43:33.418Z,82.53
2022-11-06T07:46:05.110Z,82.35
2022-11-06T07:48:33.343Z,82.64
2022-11-06T07:51:03.950Z,82.31
2022-11-06T07:53:31.064Z,81.66
2022-11-06T07:55:58.001Z,81.44
2022-11-06T07:58:25.126Z,81.04
2022-11-06T08:00:54.840Z,80.56
2022-11-06T08:03:22.249Z,80.70
2022-11-06T08:05:49.022Z,79.71
2022-11-06T08:08:15.732Z,79.16
2022-11-06T08:10:47.933Z,79.32
2022-11-06T08:13:16.737Z,79.42
2022-11-06T08:15:44.094Z,79.92
2022-11-06T08:18:11.878Z,80.74
2022-11-06T08:20:39.656Z,79.87
2022-11-06T08:23:08.397Z,78.96
2022-11-06T08:25:35.646Z,79.98
2022-11-06T08:28:03.236Z,78.56
2022-11-06T08:30:30.978Z,78.12
2022-11-06T08:33:07.657Z,77.78
2022-11-06T08:35:34.823Z,77.20
2022-11-06T08:38:02.529Z,76.78
2022-11-06T08:40:31.124Z,77.14
2022-11-06T08:43:02.549Z,77.61
2022-11-06T08:45:29.649Z,77.59
2022-11-06T08:48:01.729Z,79.22
2022-11-06T08:50:28.930Z,77.53
2022-11-06T08:53:04.316Z,75.25
2022-11-06T08:55:31.565Z,74.08
2022-11-06T08:57:58.055Z,73.17
2022-11-06T09:00:26.205Z,73.50
2022-11-06T09:03:00.621Z,74.08
2022-11-06T09:05:28.068Z,72.81
2022-11-06T09:07:54.542Z,73.22
2022-11-06T09:10:21.135Z,72.46
2022-11-06T09:12:47.677Z,72.87
2022-11-06T09:15:14.237Z,71.90
2022-11-06T09:17:45.536Z,71.81
2022-11-06T09:20:13.552Z,72.12
2022-11-06T09:22:40.466Z,71.62
2022-11-06T09:25:07.990Z,71.43
2022-11-06T09:27:57.330Z,69.45
2022-11-06T09:30:27.999Z,70.43
2022-11-06T09:32:59.723Z,69.25
2022-11-06T09:35:28.071Z,70.17
2022-11-06T09:37:54.544Z,69.63
2022-11-06T09:40:29.958Z,68.24
2022-11-06T09:44:03.021Z,69.82
2022-11-06T09:46:28.941Z,69.95
2022-11-06T09:48:55.407Z,72.83
2022-11-06T09:51:24.830Z,74.46
2022-11-06T09:53:58.837Z,75.02
2022-11-06T09:56:30.829Z,75.29
2022-11-06T10:01:46.174Z,75.44
2022-11-06T10:04:23.979Z,75.13
2022-11-06T10:06:57.833Z,75.13
2022-11-06T10:09:24.345Z,73.36
2022-11-06T10:11:50.868Z,71.80
2022-11-06T10:14:44.748Z,70.14
2022-11-06T10:17:18.165Z,70.37
2022-11-06T10:26:17.115Z,71.27
2022-11-06T10:29:02.380Z,71.80
2022-11-06T10:31:47.588Z,72.56
2022-11-06T10:34:27.090Z,73.04
2022-11-06T10:37:12.160Z,73.76
2022-11-06T10:39:39.750Z,74.58
2022-11-06T10:42:15.843Z,75.02
2022-11-06T10:45:05.740Z,75.36
2022-11-06T10:47:46.565Z,75.48
2022-11-06T10:50:15.663Z,75.92
2022-11-06T10:52:56.193Z,75.81
2022-11-06T10:55:52.541Z,75.92
2022-11-06T10:58:26.318Z,76.09
2022-11-06T11:00:55.192Z,76.19
2022-11-06T11:03:24.194Z,76.49
2022-11-06T11:05:50.794Z,76.92
2022-11-06T11:08:35.339Z,76.72
2022-11-06T11:11:20.063Z,76.71
2022-11-06T11:13:57.307Z,76.25
2022-11-06T11:16:43.788Z,76.30
2022-11-06T11:19:36.029Z,76.86
2022-11-06T11:22:05.944Z,76.88
2022-11-06T11:24:32.963Z,76.65
2022-11-06T11:27:02.452Z,76.68
2022-11-06T11:29:32.371Z,76.66
2022-11-06T11:32:05.633Z,76.70
2022-11-06T11:34:35.785Z,75.99
2022-11-06T11:37:08.143Z,75.54
2022-11-06T11:39:45.683Z,75.42
2022-11-06T11:42:18.748Z,73.50
2022-11-06T11:44:45.366Z,71.29
2022-11-06T11:47:23.400Z,70.53
2022-11-06T11:49:50.400Z,71.49
2022-11-06T11:52:21.538Z,72.16
2022-11-06T11:54:52.742Z,72.23
2022-11-06T11:57:28.500Z,71.86
2022-11-06T12:00:05.806Z,72.81
2022-11-06T12:03:04.965Z,72.47
2022-11-06T12:05:31.772Z,71.90
2022-11-06T12:07:59.417Z,72.40
2022-11-06T12:10:33.460Z,72.90
2022-11-06T12:13:03.392Z,72.66
2022-11-06T12:15:47.933Z,73.08
2022-11-06T12:18:21.655Z,73.25
2022-11-06T12:21:07.090Z,73.43
2022-11-06T12:23:38.383Z,73.21
2022-11-06T12:26:31.201Z,73.06
2022-11-06T12:29:28.940Z,73.44
2022-11-06T12:32:04.498Z,73.49
2022-11-06T12:34:37.579Z,73.68
2022-11-06T12:37:22.246Z,73.79
2022-11-06T12:40:03.181Z,73.39
2022-11-06T12:42:34.141Z,73.08
2022-11-06T12:45:01.186Z,72.67
2022-11-06T12:47:56.216Z,72.63
2022-11-06T12:50:39.002Z,72.25
2022-11-06T12:53:16.361Z,71.98
2022-11-06T12:55:49.470Z,70.70
2022-11-06T12:58:37.414Z,69.33
2022-11-06T13:01:15.515Z,66.43
2022-11-06T13:03:51.008Z,64.92
2022-11-06T13:06:42.092Z,64.96
2022-11-06T13:09:20.657Z,65.94
2022-11-06T13:12:22.476Z,66.45
2022-11-06T13:15:17.303Z,66.79
2022-11-06T13:18:12.357Z,66.29
2022-11-06T13:21:07.659Z,66.52
2022-11-06T13:23:48.035Z,66.72
2022-11-06T13:26:32.566Z,66.49
2022-11-06T13:29:04.241Z,66.08
2022-11-06T13:31:38.774Z,66.25
2022-11-06T13:34:07.602Z,66.32
2022-11-06T13:36:36.854Z,66.51
2022-11-06T13:39:16.594Z,66.82
2022-11-06T13:41:43.090Z,66.53
2022-11-06T13:44:16.134Z,66.35
2022-11-06T13:46:56.629Z,65.98
2022-11-06T13:49:34.424Z,66.24
2022-11-06T13:52:03.787Z,65.90
2022-11-06T13:54:36.015Z,65.87
2022-11-06T13:57:40.147Z,65.80
2022-11-06T14:00:19.994Z,65.44
2022-11-06T14:02:58.610Z,65.75
2022-11-06T14:05:43.000Z,66.05
2022-11-06T14:08:30.699Z,66.02
2022-11-06T14:11:14.037Z,64.79
2022-11-06T14:13:41.803Z,64.20
2022-11-06T14:16:14.379Z,63.25
2022-11-06T14:18:41.960Z,63.44
2022-11-06T14:21:28.075Z,63.47
2022-11-06T14:24:27.791Z,63.27
2022-11-06T14:26:54.342Z,62.50
2022-11-06T14:29:27.275Z,62.84
2022-11-06T14:32:10.778Z,64.25
2022-11-06T14:34:42.638Z,62.76
2022-11-06T14:37:18.438Z,62.63
2022-11-06T14:39:51.216Z,63.10
2022-11-06T14:42:27.106Z,62.76
2022-11-06T14:44:55.945Z,62.88
2022-11-06T14:47:31.090Z,62.65
2022-11-06T14:50:01.700Z,62.81
2022-11-06T14:52:28.868Z,62.83
2022-11-06T14:55:03.488Z,62.65
2022-11-06T14:57:52.578Z,62.90
2022-11-06T15:00:31.554Z,63.13
2022-11-06T15:02:58.649Z,62.55
2022-11-06T15:05:26.348Z,62.78
2022-11-06T15:08:04.920Z,62.80
2022-11-06T15:10:43.948Z,62.95
2022-11-06T15:13:23.051Z,63.31
2022-11-06T15:15:56.550Z,64.13
2022-11-06T15:18:26.053Z,66.21
2022-11-06T15:21:05.497Z,68.23
2022-11-06T15:23:47.736Z,69.29
2022-11-06T15:26:24.287Z,70.23
2022-11-06T15:29:18.882Z,71.39
2022-11-06T15:31:49.122Z,72.10
2022-11-06T15:34:33.204Z,72.94
2022-11-06T15:37:11.476Z,74.18
2022-11-06T15:39:54.685Z,74.17
2022-11-06T15:42:27.770Z,75.53
2022-11-06T15:45:16.081Z,76.99
2022-11-06T15:47:54.642Z,76.91
2022-11-06T15:50:32.816Z,77.87
2022-11-06T15:53:15.922Z,79.97
2022-11-06T15:55:52.148Z,80.10
2022-11-06T15:58:18.730Z,81.85
2022-11-06T16:00:45.907Z,81.85
2022-11-06T16:03:19.299Z,82.84
2022-11-06T16:05:47.006Z,83.31
2022-11-06T16:08:15.442Z,83.28
2022-11-06T16:10:46.962Z,83.63
2022-11-06T16:13:17.468Z,83.23
2022-11-06T16:15:50.268Z,82.50
2022-11-06T16:18:40.896Z,83.54
2022-11-06T16:21:23.084Z,84.09
2022-11-06T16:23:53.105Z,84.45
2022-11-06T16:26:35.656Z,85.45
2022-11-06T16:29:08.710Z,84.55
2022-11-06T16:31:35.897Z,84.29
2022-11-06T16:34:31.746Z,83.24
2022-11-06T16:37:17.966Z,83.74
2022-11-06T16:39:56.015Z,83.50
2022-11-06T16:42:22.531Z,82.65
2022-11-06T16:44:50.849Z,83.15
2022-11-06T16:47:22.780Z,82.38
2022-11-06T16:49:53.856Z,82.09
2022-11-06T16:52:28.818Z,81.86
2022-11-06T16:55:00.549Z,81.59
2022-11-06T16:57:52.413Z,81.06
2022-11-06T17:00:21.614Z,81.07
2022-11-06T17:02:54.592Z,80.37
2022-11-06T17:05:22.454Z,80.52
2022-11-06T17:07:49.815Z,80.44
2022-11-06T17:10:34.531Z,79.15
2022-11-06T17:13:28.567Z,79.48
2022-11-06T17:15:57.540Z,79.28
2022-11-06T17:18:29.677Z,78.92
2022-11-06T17:20:58.435Z,78.79
2022-11-06T17:23:26.300Z,78.53
2022-11-06T17:26:01.449Z,79.05
2022-11-06T17:28:28.341Z,79.36
2022-11-06T17:30:55.347Z,79.81
2022-11-06T17:33:22.169Z,81.31
2022-11-06T17:35:49.524Z,81.61
2022-11-06T17:38:17.692Z,83.46
2022-11-06T17:40:45.486Z,84.36
2022-11-06T17:43:12.342Z,85.03
2022-11-06T17:45:42.283Z,84.99
2022-11-06T17:48:09.190Z,84.85
2022-11-06T17:50:55.971Z,84.63
2022-11-06T17:53:22.460Z,84.14
2022-11-06T17:55:48.887Z,83.49
2022-11-06T17:58:15.884Z,82.77
2022-11-06T18:00:42.980Z,82.35
2022-11-06T18:03:17.974Z,81.91
2022-11-06T18:05:45.190Z,82.23
2022-11-06T18:08:13.814Z,81.23
2022-11-06T18:10:40.794Z,80.73
2022-11-06T18:13:07.289Z,80.90
2022-11-06T18:15:35.253Z,81.02
2022-11-06T18:18:02.141Z,80.89
2022-11-06T18:20:28.757Z,81.26
2022-11-06T18:22:55.341Z,81.34
2022-11-06T18:25:21.773Z,81.26
2022-11-06T18:27:48.288Z,81.39
2022-11-06T18:30:14.903Z,81.63
2022-11-06T18:32:41.427Z,80.87
2022-11-06T18:35:08.536Z,80.92
2022-11-06T18:37:35.274Z,80.60
2022-11-06T18:40:02.034Z,80.98
2022-11-06T18:42:31.564Z,80.92
2022-11-06T18:44:58.036Z,80.88
2022-11-06T18:47:25.059Z,80.90
2022-11-06T18:49:51.517Z,80.40
2022-11-06T18:52:38.135Z,80.73
2022-11-06T18:58:40.332Z,80.79
2022-11-06T19:01:08.288Z,80.67
2022-11-06T19:03:35.871Z,80.48
2022-11-06T19:06:04.301Z,80.59
2022-11-06T19:08:31.236Z,80.64
2022-11-06T19:10:57.865Z,80.41
2022-11-06T19:13:24.574Z,80.58
2022-11-06T19:15:51.275Z,80.56
2022-11-06T19:18:18.029Z,80.45
2022-11-06T19:20:44.791Z,80.30
2022-11-06T19:23:14.189Z,80.29
2022-11-06T19:25:41.874Z,80.16
2022-11-06T19:28:09.583Z,80.00
2022-11-06T19:30:36.467Z,80.33
2022-11-06T19:33:03.511Z,80.27
2022-11-06T19:35:31.683Z,79.91
2022-11-06T19:37:58.447Z,79.64
2022-11-06T19:40:25.089Z,78.90
2022-11-06T19:42:51.646Z,79.52
2022-11-06T19:45:18.278Z,78.96
2022-11-06T19:47:44.958Z,78.60
2022-11-06T19:50:11.518Z,78.75
2022-11-06T19:52:41.257Z,78.02
2022-11-06T19:55:26.609Z,78.30
2022-11-06T19:57:57.206Z,78.24
2022-11-06T20:00:23.847Z,78.45
2022-11-06T20:02:51.200Z,78.16
2022-11-06T20:05:18.126Z,78.22
2022-11-06T20:07:44.831Z,78.56
2022-11-06T20:10:11.580Z,78.60
2022-11-06T20:12:38.312Z,78.62
2022-11-06T20:15:05.394Z,78.37
2022-11-06T20:17:31.950Z,78.56
2022-11-06T20:19:58.594Z,78.02
2022-11-06T20:22:25.528Z,78.59
2022-11-06T20:24:52.107Z,78.38
2022-11-06T20:27:18.841Z,77.93
2022-11-06T20:29:45.914Z,78.26
2022-11-06T20:32:17.679Z,78.27
2022-11-06T20:34:45.806Z,78.18
2022-11-06T20:37:12.474Z,78.22
2022-11-06T20:39:39.084Z,78.51
2022-11-06T20:42:05.758Z,78.37
2022-11-06T20:44:32.981Z,78.53
2022-11-06T20:46:59.705Z,78.66
2022-11-06T20:49:26.364Z,78.72
2022-11-06T20:52:13.327Z,78.70
2022-11-06T20:54:45.396Z,78.84
2022-11-06T20:57:13.946Z,78.88
2022-11-06T20:59:40.541Z,79.04
2022-11-06T21:02:07.292Z,78.97
2022-11-06T21:04:34.604Z,79.06
2022-11-06T21:07:01.293Z,79.12
2022-11-06T21:09:27.961Z,79.56
2022-11-06T21:11:54.519Z,79.78
2022-11-06T21:14:21.710Z,79.47
2022-11-06T21:16:48.661Z,79.59
2022-11-06T21:19:15.285Z,79.58
2022-11-06T21:21:41.927Z,79.72
2022-11-06T21:24:08.683Z,79.80
2022-11-06T21:26:37.372Z,79.99
2022-11-06T21:29:06.565Z,79.97
2022-11-06T21:31:33.774Z,80.22
2022-11-06T21:34:02.220Z,80.18
2022-11-06T21:36:31.925Z,80.24
2022-11-06T21:39:01.288Z,80.37
2022-11-06T21:41:30.229Z,80.34
2022-11-06T21:43:57.473Z,80.23
2022-11-06T21:46:24.249Z,80.51
2022-11-06T21:48:51.921Z,80.40
2022-11-06T21:51:25.064Z,80.64
2022-11-06T21:54:11.389Z,80.62
2022-11-06T21:56:39.426Z,80.87
2022-11-06T21:59:09.052Z,81.17
2022-11-06T22:01:36.770Z,81.32
2022-11-06T22:04:03.787Z,81.72
2022-11-06T22:06:30.734Z,81.86
2022-11-06T22:09:00.006Z,81.99
2022-11-06T22:11:43.503Z,82.09
2022-11-06T22:14:16.604Z,82.52
2022-11-06T22:16:45.879Z,82.44
2022-11-06T22:19:14.024Z,82.71
2022-11-06T22:21:41.176Z,82.67
2022-11-06T22:24:08.580Z,82.69
2022-11-06T22:26:36.443Z,82.74
2022-11-06T22:29:05.271Z,83.02
2022-11-06T22:31:31.917Z,83.05
2022-11-06T22:33:59.012Z,82.61
2022-11-06T22:36:26.373Z,82.63
2022-11-06T22:38:53.655Z,82.87
2022-11-06T22:41:22.884Z,82.89
2022-11-06T22:43:49.861Z,82.80
2022-11-06T22:46:19.583Z,82.93
2022-11-06T22:48:46.959Z,82.93
2022-11-06T22:51:16.432Z,82.93
2022-11-06T22:53:43.226Z,83.21
2022-11-06T22:56:12.575Z,83.23
2022-11-06T22:58:39.954Z,83.40
2022-11-06T23:01:07.486Z,83.44
2022-11-06T23:03:34.160Z,83.51
2022-11-06T23:06:04.796Z,83.75
2022-11-06T23:08:31.809Z,84.06
2022-11-06T23:10:59.470Z,84.26
2022-11-06T23:13:26.183Z,84.15
2022-11-06T23:16:01.815Z,84.34
2022-11-06T23:18:28.671Z,84.73
2022-11-06T23:20:55.280Z,84.94
2022-11-06T23:23:21.898Z,85.34
2022-11-06T23:25:48.444Z,85.13
2022-11-06T23:28:15.061Z,85.02
2022-11-06T23:30:41.688Z,85.38
2022-11-06T23:33:08.434Z,85.74
2022-11-06T23:35:35.192Z,85.78
2022-11-06T23:38:01.849Z,85.83
2022-11-06T23:40:28.418Z,85.95
2022-11-06T23:42:57.049Z,86.10
2022-11-06T23:45:42.261Z,86.00
2022-11-06T23:48:13.682Z,85.67
2022-11-06T23:50:41.501Z,85.57
2022-11-06T23:53:08.258Z,85.80
2022-11-06T23:55:34.910Z,85.70
2022-11-06T23:58:01.543Z,85.63
